Time;durP1;ratioP1;P1;durP2;ratioP2;P2;SDS_P1;SDS_P2;PMS_P1;PMS_P2;Temp;Humidity;BMP_temperature;BMP_pressure;BME280_temperature;BME280_humidity;BME280_pressure;Samples;Min_cycle;Max_cycle;Signal;HPM_P1;HPM_P2
2022/03/01 00:01:41;;;;;;;4.13;1.63;;;-2.60;99.90;;;;;;4880329;29;20511;-91
2022/03/01 00:04:09;;;;;;;4.53;1.60;;;-2.60;99.90;;;;;;4880753;29;20400;-91
2022/03/01 00:06:37;;;;;;;4.67;1.60;;;-2.60;99.90;;;;;;4880382;29;20393;-90
2022/03/01 00:09:04;;;;;;;5.80;1.60;;;-2.60;99.90;;;;;;4880314;29;20406;-90
2022/03/01 00:11:32;;;;;;;4.30;1.67;;;-2.60;99.90;;;;;;4880555;29;20413;-92
2022/03/01 00:14:00;;;;;;;3.80;1.30;;;-2.70;99.90;;;;;;4865566;29;20900;-90
2022/03/01 00:16:30;;;;;;;4.32;1.15;;;-2.70;99.90;;;;;;4880295;29;20417;-91
2022/03/01 00:18:58;;;;;;;3.80;1.35;;;-2.60;99.90;;;;;;4880361;29;20409;-89
2022/03/01 00:21:26;;;;;;;3.87;1.40;;;-2.60;99.90;;;;;;4880736;29;20406;-92
2022/03/01 00:23:54;;;;;;;3.28;1.30;;;-2.50;99.90;;;;;;4880445;29;20432;-92
2022/03/01 00:26:23;;;;;;;4.57;1.60;;;-2.50;99.90;;;;;;4880734;29;20449;-90
2022/03/01 00:28:50;;;;;;;3.08;1.20;;;-2.60;99.90;;;;;;4884130;29;20404;-91
2022/03/01 00:31:18;;;;;;;4.47;1.50;;;-2.60;99.90;;;;;;4884086;29;20425;-90
2022/03/01 00:33:45;;;;;;;3.97;1.33;;;-2.60;99.90;;;;;;4868528;29;20405;-90
2022/03/01 00:36:13;;;;;;;5.03;1.58;;;-2.60;99.90;;;;;;4883838;29;20412;-91
2022/03/01 00:38:40;;;;;;;4.18;1.23;;;-2.50;99.90;;;;;;4883709;29;20441;-91
2022/03/01 00:41:08;;;;;;;4.00;1.25;;;-2.50;99.90;;;;;;4884150;29;20408;-91
2022/03/01 00:43:35;;;;;;;5.57;1.50;;;-2.40;99.90;;;;;;4883978;29;20753;-91
2022/03/01 00:46:03;;;;;;;3.40;1.17;;;-2.40;99.90;;;;;;4883651;29;20741;-91
2022/03/01 00:48:31;;;;;;;4.10;1.20;;;-2.40;99.90;;;;;;4868064;29;20409;-91
2022/03/01 00:50:58;;;;;;;4.72;1.35;;;-2.50;99.90;;;;;;4883529;29;20779;-91
2022/03/01 00:53:26;;;;;;;2.95;1.20;;;-2.50;99.90;;;;;;4883342;29;20404;-92
2022/03/01 00:55:53;;;;;;;2.83;1.30;;;-2.40;99.90;;;;;;4868380;29;20955;-91
2022/03/01 00:58:21;;;;;;;4.88;1.20;;;-2.40;99.90;;;;;;4867805;29;20425;-92
2022/03/01 01:00:48;;;;;;;3.97;1.30;;;-2.50;99.90;;;;;;4883494;29;20437;-90
2022/03/01 01:03:16;;;;;;;5.00;1.40;;;-2.50;99.90;;;;;;4868003;29;20401;-91
2022/03/01 01:05:43;;;;;;;4.93;1.33;;;-2.50;99.90;;;;;;4883266;29;20472;-91
2022/03/01 01:08:11;;;;;;;5.20;1.20;;;-2.50;99.90;;;;;;4882799;29;20405;-90
2022/03/01 01:10:38;;;;;;;3.83;1.13;;;-2.50;99.90;;;;;;4899734;29;20456;-91
2022/03/01 01:13:06;;;;;;;3.13;1.00;;;-2.50;99.90;;;;;;4867771;29;20429;-90
2022/03/01 01:15:33;;;;;;;3.47;1.10;;;-2.50;99.90;;;;;;4883313;29;20491;-90
2022/03/01 01:18:01;;;;;;;3.20;1.10;;;-2.60;99.90;;;;;;4867787;29;20409;-91
2022/03/01 01:20:28;;;;;;;3.40;1.25;;;-2.60;99.90;;;;;;4883205;29;20413;-91
2022/03/01 01:22:56;;;;;;;3.05;1.10;;;-2.60;99.90;;;;;;4883386;29;20885;-91
2022/03/01 01:25:25;;;;;;;3.00;1.20;;;-2.60;99.90;;;;;;4867510;29;20429;-90
2022/03/01 01:27:56;;;;;;;3.55;1.00;;;-2.50;99.90;;;;;;4883213;29;20473;-91
2022/03/01 01:30:26;;;;;;;2.70;1.20;;;-2.60;99.90;;;;;;4867629;29;20448;-90
2022/03/01 01:32:54;;;;;;;2.78;1.00;;;-2.60;99.90;;;;;;4882855;29;20398;-90
2022/03/01 01:35:24;;;;;;;5.05;1.10;;;-2.70;99.90;;;;;;4883152;29;20412;-92
2022/03/01 01:37:53;;;;;;;2.83;1.00;;;-2.70;99.90;;;;;;4882776;29;20535;-91
2022/03/01 01:40:29;;;;;;;2.42;1.00;;;-2.70;99.90;;;;;;4867673;29;20769;-91
2022/03/01 01:42:58;;;;;;;3.35;1.10;;;-2.70;99.90;;;;;;4882599;29;20411;-91
2022/03/01 01:45:26;;;;;;;3.78;1.20;;;-2.80;99.90;;;;;;4882514;29;20500;-90
2022/03/01 01:47:55;;;;;;;2.95;1.10;;;-2.80;99.90;;;;;;4883261;29;20398;-90
2022/03/01 01:50:24;;;;;;;4.10;1.10;;;-2.80;99.90;;;;;;4867604;29;20433;-91
2022/03/01 01:52:53;;;;;;;4.38;1.17;;;-2.80;99.90;;;;;;4882719;29;20409;-91
2022/03/01 01:55:23;;;;;;;3.50;1.13;;;-2.80;99.90;;;;;;4882434;29;20401;-91
2022/03/01 01:57:57;;;;;;;3.05;1.10;;;-2.90;99.90;;;;;;4883366;29;20417;-90
2022/03/01 02:00:26;;;;;;;3.80;1.00;;;-2.90;99.90;;;;;;4882394;29;20417;-90
2022/03/01 02:02:54;;;;;;;3.13;1.10;;;-2.90;99.90;;;;;;4882923;29;20901;-91
2022/03/01 02:05:26;;;;;;;3.05;1.05;;;-2.90;99.90;;;;;;4899122;29;20417;-91
2022/03/01 02:07:53;;;;;;;2.97;1.03;;;-3.00;99.90;;;;;;4882233;29;20905;-89
2022/03/01 02:10:21;;;;;;;2.28;0.90;;;-3.00;99.90;;;;;;4866843;29;20421;-91
2022/03/01 02:12:49;;;;;;;2.90;1.10;;;-3.00;99.90;;;;;;4882087;29;20434;-90
2022/03/01 02:15:17;;;;;;;2.67;1.00;;;-3.10;99.90;;;;;;4866745;29;20426;-91
2022/03/01 02:17:45;;;;;;;2.92;1.00;;;-3.10;99.90;;;;;;4882132;29;20413;-90
2022/03/01 02:20:14;;;;;;;3.53;1.10;;;-3.30;99.90;;;;;;5172345;23;20438;-85
2022/03/01 02:22:42;;;;;;;2.78;0.93;;;-3.30;99.90;;;;;;4878253;29;20407;-85
2022/03/01 02:25:09;;;;;;;2.85;1.05;;;-3.40;99.90;;;;;;4878030;29;20967;-84
2022/03/01 02:27:37;;;;;;;3.10;1.10;;;-3.30;99.90;;;;;;4878365;29;20459;-84
2022/03/01 02:30:07;;;;;;;3.25;0.90;;;-3.30;99.90;;;;;;4878367;29;20407;-84
2022/03/01 02:32:35;;;;;;;1.85;0.80;;;-3.20;99.90;;;;;;4878001;29;20842;-85
2022/03/01 02:35:03;;;;;;;2.92;1.10;;;-3.30;99.90;;;;;;4878225;29;20804;-85
2022/03/01 02:37:33;;;;;;;4.15;1.30;;;-3.40;99.90;;;;;;4862930;29;20530;-86
2022/03/01 02:40:01;;;;;;;2.63;0.93;;;-3.40;99.90;;;;;;4892513;29;20550;-86
2022/03/01 02:42:30;;;;;;;2.55;0.90;;;-3.30;99.90;;;;;;4843950;29;20412;-84
2022/03/01 02:44:58;;;;;;;3.13;1.23;;;-3.40;99.90;;;;;;4859327;29;20405;-85
2022/03/01 02:47:26;;;;;;;3.30;1.08;;;-3.30;99.90;;;;;;4844115;29;20732;-84
2022/03/01 02:49:54;;;;;;;2.15;0.95;;;-3.30;99.90;;;;;;4858769;29;20416;-85
2022/03/01 02:52:21;;;;;;;2.05;0.95;;;-3.30;99.90;;;;;;4843921;29;20412;-84
2022/03/01 02:54:49;;;;;;;2.90;1.00;;;-3.30;99.90;;;;;;4860171;29;20408;-84
2022/03/01 02:57:16;;;;;;;2.65;1.00;;;-3.40;99.90;;;;;;4877730;29;20407;-84
2022/03/01 02:59:45;;;;;;;2.60;1.00;;;-3.40;99.90;;;;;;4877838;29;20470;-85
2022/03/01 03:02:12;;;;;;;2.65;1.00;;;-3.40;99.90;;;;;;4877458;29;20494;-84
2022/03/01 03:04:40;;;;;;;2.75;0.95;;;-3.40;99.90;;;;;;4878689;29;20769;-84
2022/03/01 03:07:08;;;;;;;1.70;0.80;;;-3.40;99.90;;;;;;4892912;29;20489;-85
2022/03/01 03:09:35;;;;;;;2.60;1.00;;;-3.40;99.90;;;;;;4858939;29;20516;-84
2022/03/01 03:12:04;;;;;;;2.83;1.00;;;-3.40;99.90;;;;;;4874436;29;20401;-86
2022/03/01 03:14:32;;;;;;;2.42;0.90;;;-3.40;99.90;;;;;;4874476;29;20405;-84
2022/03/01 03:16:59;;;;;;;2.80;0.87;;;-3.40;99.90;;;;;;4870847;29;20908;-84
2022/03/01 03:19:27;;;;;;;3.00;1.02;;;-3.40;99.90;;;;;;4892956;29;20403;-83
2022/03/01 03:21:54;;;;;;;2.33;0.77;;;-3.30;99.90;;;;;;4878412;29;20610;-84
2022/03/01 03:24:22;;;;;;;2.10;0.80;;;-3.40;99.90;;;;;;4877269;29;20446;-85
2022/03/01 03:26:50;;;;;;;1.50;1.00;;;-3.50;99.90;;;;;;4892619;29;20913;-86
2022/03/01 03:29:18;;;;;;;3.33;0.90;;;-3.60;99.90;;;;;;4877119;29;20487;-86
2022/03/01 03:31:48;;;;;;;2.58;0.90;;;-3.60;99.90;;;;;;4878343;29;20403;-85
2022/03/01 03:34:16;;;;;;;2.50;0.80;;;-3.70;99.90;;;;;;4877010;29;20414;-84
2022/03/01 03:36:44;;;;;;;2.70;0.90;;;-3.70;99.90;;;;;;4876927;29;20407;-85
2022/03/01 03:39:12;;;;;;;2.03;0.82;;;-3.80;99.90;;;;;;4877465;29;20822;-84
2022/03/01 03:41:40;;;;;;;3.90;0.85;;;-3.80;99.90;;;;;;4861727;29;20411;-84
2022/03/01 03:44:08;;;;;;;2.63;0.90;;;-3.90;99.90;;;;;;4878432;29;20406;-86
2022/03/01 03:46:35;;;;;;;2.15;0.90;;;-4.00;99.90;;;;;;4861595;29;20450;-85
2022/03/01 03:49:04;;;;;;;2.33;0.95;;;-4.00;99.90;;;;;;4892423;29;20407;-85
2022/03/01 03:51:32;;;;;;;2.53;1.10;;;-4.00;99.90;;;;;;4877032;29;20406;-84
2022/03/01 03:54:00;;;;;;;2.70;0.90;;;-4.10;99.90;;;;;;4887526;29;20409;-86
2022/03/01 03:56:28;;;;;;;1.60;0.77;;;-4.10;99.90;;;;;;4858497;29;20412;-86
2022/03/01 03:58:57;;;;;;;3.28;1.00;;;-4.20;99.90;;;;;;4873759;29;20409;-83
2022/03/01 04:01:25;;;;;;;2.20;0.80;;;-4.30;99.90;;;;;;4870622;29;20407;-86
2022/03/01 04:03:53;;;;;;;2.22;1.00;;;-4.30;99.90;;;;;;4880574;29;20771;-86
2022/03/01 04:06:20;;;;;;;4.35;1.40;;;-4.30;99.90;;;;;;4895976;29;20469;-87
2022/03/01 04:08:48;;;;;;;3.45;1.55;;;-4.40;99.90;;;;;;4880857;29;20901;-87
2022/03/01 04:11:15;;;;;;;3.50;1.13;;;-4.40;99.90;;;;;;4880605;29;20410;-86
2022/03/01 04:13:43;;;;;;;3.40;1.25;;;-4.40;99.90;;;;;;4896465;29;20419;-86
2022/03/01 04:16:11;;;;;;;1.67;0.95;;;-4.40;99.90;;;;;;4880546;29;20406;-85
2022/03/01 04:18:38;;;;;;;3.38;1.08;;;-4.40;99.90;;;;;;4880599;29;20403;-86
2022/03/01 04:21:06;;;;;;;3.25;0.90;;;-4.40;99.90;;;;;;4895779;29;20522;-86
2022/03/01 04:23:34;;;;;;;3.63;1.17;;;-4.40;99.90;;;;;;4881449;29;20489;-86
2022/03/01 04:26:04;;;;;;;3.55;1.20;;;-4.50;99.90;;;;;;4895604;29;20509;-85
2022/03/01 04:28:32;;;;;;;3.10;1.00;;;-4.50;99.90;;;;;;4880368;29;20430;-85
2022/03/01 04:31:00;;;;;;;2.55;1.00;;;-4.50;99.90;;;;;;4880251;29;20434;-86
2022/03/01 04:33:28;;;;;;;3.00;1.00;;;-4.50;99.90;;;;;;4895725;29;20480;-86
2022/03/01 04:35:59;;;;;;;3.65;1.00;;;-4.60;99.90;;;;;;4864690;29;20470;-85
2022/03/01 04:38:28;;;;;;;3.95;1.48;;;-4.60;99.90;;;;;;4864683;29;20487;-86
2022/03/01 04:40:57;;;;;;;3.75;1.08;;;-4.60;99.90;;;;;;4881168;29;20434;-86
2022/03/01 04:43:24;;;;;;;2.40;1.13;;;-4.60;99.90;;;;;;4880333;29;20479;-85
2022/03/01 04:45:52;;;;;;;3.05;1.25;;;-4.70;99.90;;;;;;4879911;29;20940;-85
2022/03/01 04:48:20;;;;;;;3.97;1.20;;;-4.70;99.90;;;;;;4880025;29;20761;-86
2022/03/01 04:50:47;;;;;;;3.67;1.00;;;-4.70;99.90;;;;;;4880053;29;20451;-85
2022/03/01 04:53:15;;;;;;;2.85;1.10;;;-4.70;99.90;;;;;;4880897;29;20399;-85
2022/03/01 04:55:43;;;;;;;2.50;1.08;;;-4.60;99.90;;;;;;4881078;29;20407;-86
2022/03/01 04:58:17;;;;;;;2.90;1.10;;;-4.70;99.90;;;;;;4881243;29;20430;-86
2022/03/01 05:00:45;;;;;;;3.60;1.10;;;-4.80;99.90;;;;;;4893095;29;20440;-86
2022/03/01 05:03:13;;;;;;;2.70;1.10;;;-4.80;99.90;;;;;;4869540;29;20411;-85
2022/03/01 05:05:41;;;;;;;2.72;1.02;;;-4.90;99.90;;;;;;4875663;29;20428;-85
2022/03/01 05:08:09;;;;;;;2.38;1.17;;;-4.90;99.90;;;;;;4861027;29;20409;-83
2022/03/01 05:10:36;;;;;;;2.65;1.20;;;-4.90;99.90;;;;;;4861404;29;20432;-84
2022/03/01 05:13:09;;;;;;;3.78;1.30;;;-5.00;99.90;;;;;;4854296;29;20449;-86
2022/03/01 05:15:36;;;;;;;3.55;1.10;;;-5.10;99.90;;;;;;4860820;29;20775;-85
2022/03/01 05:18:04;;;;;;;2.63;1.10;;;-5.00;99.90;;;;;;4860907;29;20408;-85
2022/03/01 05:20:34;;;;;;;2.65;1.10;;;-5.00;99.90;;;;;;4861804;29;20416;-86
2022/03/01 05:23:02;;;;;;;3.35;1.13;;;-5.00;99.90;;;;;;4860939;29;20456;-85
2022/03/01 05:25:29;;;;;;;2.97;1.00;;;-5.10;99.90;;;;;;4845594;29;20411;-85
2022/03/01 05:27:57;;;;;;;3.38;1.30;;;-5.10;99.90;;;;;;4860552;29;20431;-86
2022/03/01 05:30:25;;;;;;;3.50;1.15;;;-5.10;99.90;;;;;;4861725;29;20405;-86
2022/03/01 05:32:54;;;;;;;2.28;0.90;;;-5.10;99.90;;;;;;4845699;29;20453;-86
2022/03/01 05:35:27;;;;;;;3.47;1.23;;;-5.20;99.90;;;;;;4861739;29;20401;-84
2022/03/01 05:37:57;;;;;;;2.97;1.10;;;-5.20;99.90;;;;;;4845579;29;20899;-85
2022/03/01 05:40:28;;;;;;;4.25;1.30;;;-5.20;99.90;;;;;;4877600;29;20415;-83
2022/03/01 05:42:56;;;;;;;2.80;1.17;;;-5.10;99.90;;;;;;4894702;29;20885;-84
2022/03/01 05:45:25;;;;;;;3.10;1.33;;;-5.20;99.90;;;;;;4877238;29;20403;-84
2022/03/01 05:47:54;;;;;;;3.67;1.37;;;-5.20;99.90;;;;;;4879238;29;20518;-84
2022/03/01 05:50:21;;;;;;;4.13;1.48;;;-5.20;99.90;;;;;;4863752;29;20440;-83
2022/03/01 05:52:50;;;;;;;4.30;1.33;;;-5.20;99.90;;;;;;4894266;29;20890;-83
2022/03/01 05:55:18;;;;;;;4.00;1.40;;;-5.10;99.90;;;;;;4879722;29;20415;-84
2022/03/01 05:57:46;;;;;;;3.10;1.40;;;-5.20;99.90;;;;;;4893966;29;20418;-83
2022/03/01 06:00:17;;;;;;;3.40;1.30;;;-5.10;99.90;;;;;;4878412;29;20918;-83
2022/03/01 06:02:46;;;;;;;3.85;1.40;;;-5.00;99.90;;;;;;4879781;29;20474;-84
2022/03/01 06:05:15;;;;;;;3.95;1.40;;;-5.00;99.90;;;;;;4878743;29;20410;-83
2022/03/01 06:07:47;;;;;;;2.58;1.30;;;-5.00;99.90;;;;;;4878910;29;20414;-83
2022/03/01 06:10:14;;;;;;;4.43;1.40;;;-5.00;99.90;;;;;;4878826;29;20407;-83
2022/03/01 06:12:42;;;;;;;6.07;2.03;;;-4.90;99.90;;;;;;4879125;29;20411;-83
2022/03/01 06:15:10;;;;;;;3.45;1.30;;;-5.00;99.90;;;;;;4860475;29;20413;-84
2022/03/01 06:17:37;;;;;;;3.05;1.30;;;-5.00;99.90;;;;;;4878452;29;20430;-82
2022/03/01 06:20:09;;;;;;;3.88;1.38;;;-5.00;99.90;;;;;;4878825;29;20501;-83
2022/03/01 06:22:37;;;;;;;3.55;1.40;;;-5.20;99.90;;;;;;4878134;29;20793;-84
2022/03/01 06:25:09;;;;;;;3.83;1.50;;;-5.20;99.90;;;;;;4863682;29;20473;-82
2022/03/01 06:27:38;;;;;;;3.47;1.50;;;-5.20;99.90;;;;;;4859205;29;20792;-86
2022/03/01 06:30:06;;;;;;;4.22;1.70;;;-5.20;99.90;;;;;;4860519;29;20404;-84
2022/03/01 06:32:34;;;;;;;3.60;1.50;;;-5.30;99.90;;;;;;4860362;29;20883;-81
2022/03/01 06:35:02;;;;;;;5.10;1.27;;;-5.30;99.90;;;;;;4879641;29;20490;-82
2022/03/01 06:37:37;;;;;;;4.22;1.90;;;-5.20;99.90;;;;;;4860599;29;20401;-81
2022/03/01 06:40:06;;;;;;;3.90;1.70;;;-5.20;99.90;;;;;;4868628;29;20461;-82
2022/03/01 06:42:35;;;;;;;3.80;1.70;;;-5.10;99.90;;;;;;4867294;29;20407;-83
2022/03/01 06:45:03;;;;;;;5.10;1.85;;;-5.10;99.90;;;;;;4877519;29;20772;-83
2022/03/01 06:47:31;;;;;;;4.00;1.80;;;-5.00;99.90;;;;;;4874106;29;20448;-82
2022/03/01 06:50:00;;;;;;;4.57;1.80;;;-5.00;99.90;;;;;;4864824;29;20961;-82
2022/03/01 06:52:29;;;;;;;5.40;1.88;;;-4.90;99.90;;;;;;4877164;29;20419;-82
2022/03/01 06:54:56;;;;;;;3.72;1.85;;;-4.90;99.90;;;;;;4892884;29;20778;-83
2022/03/01 06:57:24;;;;;;;4.75;1.95;;;-4.80;99.90;;;;;;4861886;29;20415;-82
2022/03/01 06:59:53;;;;;;;5.63;1.98;;;-4.80;99.90;;;;;;4861930;29;20411;-83
2022/03/01 07:02:22;;;;;;;4.50;1.80;;;-4.60;99.90;;;;;;4878665;29;20487;-83
2022/03/01 07:04:49;;;;;;;4.40;1.75;;;-4.60;99.90;;;;;;4877188;29;20403;-83
2022/03/01 07:07:17;;;;;;;5.20;2.13;;;-4.60;99.90;;;;;;4877148;29;20628;-83
2022/03/01 07:09:44;;;;;;;4.68;1.73;;;-4.50;99.90;;;;;;4878315;29;20411;-83
2022/03/01 07:12:12;;;;;;;4.40;1.90;;;-4.40;99.90;;;;;;4871573;29;20415;-82
2022/03/01 07:14:39;;;;;;;4.10;1.98;;;-4.40;99.90;;;;;;4859937;29;20404;-83
2022/03/01 07:17:07;;;;;;;4.15;1.60;;;-4.20;99.90;;;;;;4860007;29;20408;-84
2022/03/01 07:19:34;;;;;;;4.85;1.80;;;-4.20;99.90;;;;;;4858014;29;20416;-83
2022/03/01 07:22:02;;;;;;;2.58;1.52;;;-4.10;99.90;;;;;;4858663;29;20598;-83
2022/03/01 07:24:30;;;;;;;3.38;1.60;;;-4.10;99.90;;;;;;4858355;29;20460;-83
2022/03/01 07:26:57;;;;;;;2.80;1.50;;;-3.90;99.90;;;;;;4843736;29;20428;-82
2022/03/01 07:29:25;;;;;;;3.17;1.60;;;-3.70;99.90;;;;;;4858393;29;20460;-83
2022/03/01 07:31:52;;;;;;;4.13;1.83;;;-3.60;99.90;;;;;;4858291;29;20452;-84
2022/03/01 07:34:25;;;;;;;3.25;1.60;;;-3.60;99.90;;;;;;4858297;29;20432;-83
2022/03/01 07:36:53;;;;;;;3.67;1.60;;;-3.50;99.90;;;;;;4858420;29;20515;-83
2022/03/01 07:39:21;;;;;;;3.00;1.45;;;-3.50;99.90;;;;;;4859418;29;20500;-83
2022/03/01 07:41:49;;;;;;;3.33;1.15;;;-3.40;99.90;;;;;;4859502;29;20880;-84
2022/03/01 07:44:18;;;;;;;3.95;1.40;;;-3.30;99.90;;;;;;4859429;29;20411;-84
2022/03/01 07:46:49;;;;;;;2.92;1.20;;;-3.20;99.90;;;;;;4867426;29;20430;-83
2022/03/01 07:49:17;;;;;;;3.35;1.10;;;-3.10;99.90;;;;;;4876752;29;20465;-84
2022/03/01 07:51:45;;;;;;;2.83;1.08;;;-3.00;99.90;;;;;;4876842;29;20435;-84
2022/03/01 07:54:13;;;;;;;3.17;1.00;;;-2.90;99.90;;;;;;4878262;29;20486;-84
2022/03/01 07:56:42;;;;;;;2.38;0.90;;;-2.80;99.90;;;;;;4876348;29;20427;-83
2022/03/01 07:59:10;;;;;;;4.00;1.17;;;-2.80;99.90;;;;;;4877727;29;20403;-83
2022/03/01 08:01:38;;;;;;;1.60;0.80;;;-2.70;99.90;;;;;;4892158;29;20906;-83
2022/03/01 08:04:06;;;;;;;1.73;0.77;;;-2.60;99.90;;;;;;4892153;29;20455;-83
2022/03/01 08:06:34;;;;;;;1.70;0.88;;;-2.50;99.90;;;;;;4876405;29;20896;-83
2022/03/01 08:09:04;;;;;;;1.92;0.80;;;-2.50;99.90;;;;;;4876405;29;20434;-83
2022/03/01 08:11:32;;;;;;;1.73;0.70;;;-2.30;99.90;;;;;;4891955;29;20489;-83
2022/03/01 08:14:00;;;;;;;2.65;0.80;;;-2.20;99.90;;;;;;4892045;29;20413;-83
2022/03/01 08:16:27;;;;;;;2.30;0.88;;;-2.10;99.90;;;;;;4876415;29;20414;-83
2022/03/01 08:18:55;;;;;;;1.85;0.88;;;-2.10;99.90;;;;;;4891910;29;20766;-83
2022/03/01 08:21:23;;;;;;;1.88;0.80;;;-2.00;99.90;;;;;;4891171;29;20403;-83
2022/03/01 08:23:52;;;;;;;2.30;1.00;;;-2.00;99.90;;;;;;4867897;29;20397;-83
2022/03/01 08:26:20;;;;;;;2.72;0.90;;;-1.80;99.90;;;;;;4873150;29;20436;-83
2022/03/01 08:28:48;;;;;;;3.17;0.90;;;-1.80;99.90;;;;;;4858837;29;20931;-82
2022/03/01 08:31:15;;;;;;;1.65;0.77;;;-1.70;99.90;;;;;;4859264;29;20402;-83
2022/03/01 08:33:43;;;;;;;1.53;0.73;;;-1.50;99.90;;;;;;4873302;29;20412;-83
2022/03/01 08:36:16;;;;;;;2.03;0.90;;;-1.50;99.90;;;;;;4873235;29;20400;-84
2022/03/01 08:38:43;;;;;;;2.78;0.93;;;-1.50;99.90;;;;;;4858155;29;20805;-83
2022/03/01 08:41:11;;;;;;;2.58;1.00;;;-1.40;99.90;;;;;;4879879;29;20909;-83
2022/03/01 08:43:38;;;;;;;1.92;0.70;;;-1.20;99.90;;;;;;4877510;29;20893;-84
2022/03/01 08:46:10;;;;;;;1.92;0.70;;;-0.70;99.90;;;;;;4877834;29;20894;-84
2022/03/01 08:48:39;;;;;;;1.55;0.70;;;-0.60;99.90;;;;;;4878679;29;20433;-84
2022/03/01 08:51:08;;;;;;;2.42;0.70;;;-0.50;99.90;;;;;;4879713;29;20509;-84
2022/03/01 08:53:35;;;;;;;1.98;0.60;;;-0.50;99.90;;;;;;4880852;29;20747;-83
2022/03/01 08:56:03;;;;;;;1.15;0.40;;;-0.20;99.90;;;;;;4879841;29;20395;-84
2022/03/01 08:58:31;;;;;;;1.67;0.60;;;0.00;99.90;;;;;;4880754;29;20876;-83
2022/03/01 09:01:01;;;;;;;1.87;0.60;;;-0.30;99.90;;;;;;4880935;29;20406;-83
2022/03/01 09:03:30;;;;;;;0.88;0.60;;;-0.20;99.90;;;;;;4880061;29;20413;-84
2022/03/01 09:06:12;;;;;;;1.50;0.60;;;-0.30;99.90;;;;;;4879457;29;20461;-83
2022/03/01 09:08:40;;;;;;;1.55;0.60;;;-0.20;99.90;;;;;;4879327;29;20578;-84
2022/03/01 09:11:09;;;;;;;2.00;0.73;;;-0.30;99.90;;;;;;4880595;29;20486;-85
2022/03/01 09:13:38;;;;;;;2.43;0.80;;;-0.40;99.90;;;;;;4879368;29;20399;-83
2022/03/01 09:16:07;;;;;;;1.70;0.70;;;0.00;99.90;;;;;;4864168;29;20958;-84
2022/03/01 09:18:35;;;;;;;2.83;0.90;;;0.30;99.90;;;;;;4879453;29;20451;-84
2022/03/01 09:21:06;;;;;;;1.90;0.80;;;0.50;99.90;;;;;;4878282;29;20413;-83
2022/03/01 09:23:41;;;;;;;1.40;0.75;;;0.80;99.90;;;;;;4870807;29;20401;-83
2022/03/01 09:26:10;;;;;;;2.28;0.85;;;0.90;99.90;;;;;;4863049;29;20461;-83
2022/03/01 09:28:38;;;;;;;1.83;0.70;;;1.10;99.90;;;;;;4875600;29;20448;-84
2022/03/01 09:31:05;;;;;;;1.75;0.80;;;0.90;99.90;;;;;;4861639;29;20468;-84
2022/03/01 09:33:33;;;;;;;1.98;0.70;;;0.90;99.90;;;;;;4861619;29;20496;-84
2022/03/01 09:36:01;;;;;;;1.88;0.80;;;1.10;99.90;;;;;;4845376;29;20452;-84
2022/03/01 09:38:28;;;;;;;2.35;0.80;;;1.00;99.90;;;;;;4861626;29;20918;-84
2022/03/01 09:40:56;;;;;;;1.50;0.85;;;1.00;99.90;;;;;;4861514;29;20880;-84
2022/03/01 09:43:24;;;;;;;1.75;0.70;;;0.70;99.90;;;;;;4860426;29;20408;-84
2022/03/01 09:45:52;;;;;;;1.03;0.63;;;0.80;99.90;;;;;;4861483;29;20465;-84
2022/03/01 09:48:20;;;;;;;2.05;0.80;;;0.80;99.90;;;;;;4859971;29;20786;-84
2022/03/01 09:50:48;;;;;;;1.58;0.90;;;0.80;99.90;;;;;;4860422;29;20984;-83
2022/03/01 09:53:16;;;;;;;1.40;0.70;;;1.30;97.60;;;;;;4861339;29;20428;-84
2022/03/01 09:55:44;;;;;;;1.48;0.70;;;1.20;98.60;;;;;;4861149;29;20468;-84
2022/03/01 09:58:13;;;;;;;2.22;0.80;;;1.00;99.50;;;;;;4860987;29;20421;-84
2022/03/01 10:00:40;;;;;;;2.10;0.80;;;1.40;95.30;;;;;;4859374;29;20409;-85
2022/03/01 10:03:08;;;;;;;2.00;0.88;;;1.40;97.60;;;;;;4859972;29;20412;-84
2022/03/01 10:05:41;;;;;;;2.08;1.10;;;1.60;95.60;;;;;;4862575;29;20432;-83
2022/03/01 10:08:13;;;;;;;1.60;0.88;;;1.80;93.70;;;;;;4867131;29;20449;-83
2022/03/01 10:10:47;;;;;;;1.83;0.90;;;1.70;96.90;;;;;;4875306;29;20410;-84
2022/03/01 10:13:31;;;;;;;2.03;0.80;;;1.70;97.10;;;;;;4877023;29;20400;-83
2022/03/01 10:16:14;;;;;;;1.53;0.87;;;1.90;94.70;;;;;;4859719;29;20404;-84
2022/03/01 10:18:49;;;;;;;1.33;0.60;;;1.80;94.30;;;;;;4859723;29;20936;-86
2022/03/01 10:21:19;;;;;;;1.40;0.80;;;1.90;91.70;;;;;;4859594;29;20465;-83
2022/03/01 10:23:50;;;;;;;2.40;0.70;;;2.10;92.20;;;;;;4876244;29;20470;-83
2022/03/01 10:26:22;;;;;;;1.33;0.70;;;2.00;93.10;;;;;;4877981;29;20411;-84
2022/03/01 10:28:52;;;;;;;1.13;0.60;;;2.30;90.50;;;;;;4877778;29;20513;-84
2022/03/01 10:31:26;;;;;;;1.50;0.63;;;2.30;90.70;;;;;;4878199;29;20407;-83
2022/03/01 10:34:11;;;;;;;2.67;0.70;;;2.50;87.80;;;;;;4877948;29;20399;-84
2022/03/01 10:36:46;;;;;;;2.80;0.60;;;2.60;87.60;;;;;;4878248;29;20467;-84
2022/03/01 10:39:41;;;;;;;0.95;0.60;;;2.70;84.40;;;;;;4873464;29;20409;-84
2022/03/01 10:42:09;;;;;;;2.47;0.75;;;2.70;89.00;;;;;;4857038;29;20431;-84
2022/03/01 10:44:36;;;;;;;1.80;0.60;;;2.50;92.20;;;;;;4859197;29;20409;-84
2022/03/01 10:47:04;;;;;;;2.33;0.75;;;2.60;90.80;;;;;;4858881;29;20416;-84
2022/03/01 10:49:34;;;;;;;1.10;0.60;;;2.70;90.60;;;;;;4859150;29;20479;-85
2022/03/01 10:52:08;;;;;;;2.50;0.70;;;2.60;92.70;;;;;;4869550;29;20395;-84
2022/03/01 10:54:41;;;;;;;1.80;1.02;;;2.60;91.20;;;;;;4878846;29;20403;-84
2022/03/01 10:57:22;;;;;;;1.23;0.70;;;3.00;85.80;;;;;;4877561;29;20402;-85
2022/03/01 10:59:51;;;;;;;1.20;0.57;;;3.20;90.90;;;;;;4874806;29;20418;-84
2022/03/01 11:02:19;;;;;;;1.63;0.60;;;3.40;83.20;;;;;;4869067;29;20898;-84
2022/03/01 11:04:49;;;;;;;1.73;0.73;;;3.40;78.30;;;;;;4892979;29;20482;-84
2022/03/01 11:07:19;;;;;;;1.40;0.60;;;3.50;81.40;;;;;;4892743;29;20403;-83
2022/03/01 11:09:51;;;;;;;1.45;0.60;;;3.70;76.90;;;;;;4871539;29;20408;-84
2022/03/01 11:12:22;;;;;;;1.45;0.70;;;3.60;81.70;;;;;;4868180;29;20422;-84
2022/03/01 11:14:55;;;;;;;1.80;0.68;;;3.50;88.00;;;;;;4888341;29;20407;-84
2022/03/01 11:17:37;;;;;;;1.02;0.60;;;3.40;82.80;;;;;;4877359;29;20502;-85
2022/03/01 11:20:23;;;;;;;1.40;0.50;;;3.70;80.70;;;;;;4877193;29;20415;-85
2022/03/01 11:22:56;;;;;;;1.13;0.63;;;3.70;81.80;;;;;;4877397;29;20502;-85
2022/03/01 11:25:27;;;;;;;1.00;0.60;;;3.70;80.00;;;;;;4862007;29;20941;-85
2022/03/01 11:28:09;;;;;;;1.00;0.55;;;3.80;75.10;;;;;;4872768;29;20520;-85
2022/03/01 11:30:42;;;;;;;2.42;0.85;;;4.10;75.30;;;;;;4890456;29;20426;-85
2022/03/01 11:33:10;;;;;;;1.77;0.80;;;4.20;76.20;;;;;;4857395;29;20410;-86
2022/03/01 11:35:55;;;;;;;1.55;0.80;;;4.20;82.00;;;;;;4874144;29;20417;-85
2022/03/01 11:38:28;;;;;;;2.23;0.83;;;4.30;79.30;;;;;;4859851;29;20923;-86
2022/03/01 11:41:11;;;;;;;1.30;0.60;;;4.20;79.50;;;;;;4889817;29;20426;-86
2022/03/01 11:43:39;;;;;;;0.90;0.60;;;4.40;80.30;;;;;;4874432;29;20518;-85
2022/03/01 11:46:18;;;;;;;0.90;0.60;;;4.10;82.70;;;;;;4876685;29;20410;-86
2022/03/01 11:48:57;;;;;;;2.10;0.70;;;4.40;78.50;;;;;;4876902;29;20415;-83
2022/03/01 11:51:32;;;;;;;2.00;0.70;;;4.20;82.10;;;;;;4873854;29;20428;-84
2022/03/01 11:54:11;;;;;;;1.00;0.60;;;4.50;74.20;;;;;;4873871;29;20415;-85
2022/03/01 11:56:41;;;;;;;1.10;0.60;;;4.60;75.70;;;;;;4859851;29;20879;-85
2022/03/01 11:59:12;;;;;;;1.42;0.77;;;4.80;73.00;;;;;;4859587;29;20906;-84
2022/03/01 12:02:00;;;;;;;0.93;0.60;;;4.80;76.30;;;;;;4871116;29;20408;-85
2022/03/01 12:04:28;;;;;;;1.20;0.68;;;4.60;80.70;;;;;;4859430;29;20405;-84
2022/03/01 12:06:57;;;;;;;1.75;0.77;;;4.90;72.20;;;;;;4859486;29;20514;-84
2022/03/01 12:09:28;;;;;;;1.33;0.60;;;5.10;68.20;;;;;;4858171;29;20468;-84
2022/03/01 12:12:07;;;;;;;1.10;0.70;;;4.90;75.30;;;;;;4884285;29;20442;-85
2022/03/01 12:14:36;;;;;;;0.80;0.50;;;5.10;71.00;;;;;;4892290;29;20402;-85
2022/03/01 12:17:20;;;;;;;2.20;0.70;;;5.40;67.50;;;;;;4872167;29;20421;-85
2022/03/01 12:20:00;;;;;;;1.40;0.52;;;5.50;66.20;;;;;;4890806;29;21008;-85
2022/03/01 12:22:29;;;;;;;2.60;0.77;;;5.70;63.70;;;;;;4873232;29;20932;-85
2022/03/01 12:24:57;;;;;;;1.63;0.70;;;5.70;69.20;;;;;;4895948;29;20399;-85
2022/03/01 12:27:30;;;;;;;1.58;0.65;;;5.70;68.70;;;;;;4879273;29;20841;-85
2022/03/01 12:30:03;;;;;;;1.58;0.80;;;5.60;74.60;;;;;;4877449;29;20425;-85
2022/03/01 12:32:34;;;;;;;1.08;0.70;;;5.20;70.60;;;;;;4872868;29;20834;-86
2022/03/01 12:35:02;;;;;;;3.00;0.80;;;5.40;79.30;;;;;;4870825;29;20410;-85
2022/03/01 12:37:30;;;;;;;1.77;0.60;;;5.50;67.10;;;;;;4864979;29;20879;-86
2022/03/01 12:39:57;;;;;;;2.20;0.75;;;5.80;68.90;;;;;;4895206;29;20467;-83
2022/03/01 12:42:29;;;;;;;1.30;0.70;;;5.70;75.70;;;;;;4887372;29;20413;-84
2022/03/01 12:44:57;;;;;;;1.60;0.80;;;5.80;72.90;;;;;;4864474;29;20417;-84
2022/03/01 12:47:24;;;;;;;2.05;0.82;;;5.90;75.70;;;;;;4862487;29;20428;-85
2022/03/01 12:49:52;;;;;;;1.73;0.90;;;5.90;71.70;;;;;;4872338;29;20445;-86
2022/03/01 12:52:21;;;;;;;1.27;0.70;;;6.10;71.80;;;;;;4879795;29;20467;-86
2022/03/01 12:54:50;;;;;;;2.10;0.80;;;5.90;76.80;;;;;;4879876;29;20430;-86
2022/03/01 12:57:18;;;;;;;1.42;0.80;;;5.90;73.30;;;;;;4877273;29;20823;-87
2022/03/01 12:59:48;;;;;;;2.70;0.80;;;6.10;75.90;;;;;;4861241;29;20412;-85
2022/03/01 13:02:18;;;;;;;1.52;0.85;;;6.30;78.90;;;;;;4862853;29;20417;-87